• Join FlightAware (Why Join?)
  • Login
  • US Flag 
06:09PM EDT


 

Airport Tracker/Info


-or-


 

Live Flight TrackerFlight Track Log ✈ N820JA ✈ 23-Jun-2013 ✈ KALB - KFRG

Flight Track Log - Related Links

Times and Time Zones

All times are in EDT time to prevent confusion due to time zone crossing. See the N820JA flight status page for this flight to view local times or setup timezone preferences in your user account.

Time Position Orientation Groundspeed Altitude Reporting Facility
EDT Latitude Longitude Course Direction KTS MPH feet Rate Location/Type
04:33PM 42.7236 -73.8050 173° South 65 75 1,500  Level Boston Center
04:34PM 42.7069 -73.8047 179° South 68 78 2,000 540 Climbing Boston Center
04:35PM 42.6881 -73.8072 186° South 67 77 2,600 600 Climbing Boston Center
04:36PM 42.6672 -73.8067 179° South 69 79 3,300 600 Climbing Boston Center
04:37PM 42.6464 -73.8064 179° South 72 83 3,900 540 Climbing Boston Center
04:38PM 42.6297 -73.8058 179° South 65 75 4,400 480 Climbing Boston Center
04:39PM 42.6111 -73.8083 186° South 70 81 4,900 480 Climbing Boston Center
04:40PM 42.5881 -73.8106 184° South 69 79 5,400 540 Climbing Boston Center
04:41PM 42.5692 -73.8103 179° South 74 85 6,000 480 Climbing Boston Center
04:43PM 42.5422 -73.8069 175° South 81 93 6,600 420 Climbing Boston Center
04:44PM 42.5233 -73.8092 185° South 86 99 7,000 360 Climbing Boston Center
04:45PM 42.4983 -73.8086 179° South 86 99 7,400 300 Climbing Boston Center
04:46PM 42.4797 -73.8056 173° South 86 99 7,700 300 Climbing Boston Center
04:47PM 42.4547 -73.8106 188° South 86 99 8,100 360 Climbing Boston Center
04:48PM 42.4358 -73.8100 179° South 86 99 8,500 360 Climbing Boston Center
04:49PM 42.4089 -73.8094 179° South 86 99 8,900 300 Climbing Boston Center
04:50PM 42.3900 -73.8119 186° South 86 99 9,200 300 Climbing Boston Center
04:51PM 42.3631 -73.8114 179° South 86 99 9,500 240 Climbing Boston Center
04:52PM 42.3442 -73.8053 167° South 86 99 9,700 240 Climbing Boston Center
04:53PM 42.3194 -73.7964 165° South 86 99 10,000 360 Climbing Boston Center
04:54PM 42.2986 -73.7903 168° South 86 99 10,500 300 Climbing Boston Center
04:55PM 42.2736 -73.7814 165° South 86 99 10,700 240 Climbing Boston Center
04:56PM 42.2531 -73.7725 162° South 86 99 11,000 120 Climbing Boston Center
04:57PM 42.2281 -73.7636 165° South 86 99 11,000  Level Boston Center
04:58PM 42.2072 -73.7575 168° South 86 99 11,100  Climbing Boston Center
04:59PM 42.1761 -73.7456 164° South 97 112 11,100  Level Boston Center
05:00PM 42.1492 -73.7367 166° South 107 123 11,100  Level Boston Center
05:01PM 42.1139 -73.7247 166° South 107 123 11,100  Level Boston Center
05:02PM 42.0806 -73.7100 162° South 107 123 11,100  Level Boston Center
05:03PM 42.0494 -73.7039 172° South 107 123 11,100 -60 Level Boston Center
05:04PM 42.0225 -73.6919 162° South 107 123 11,000 -240 Descending Boston Center
05:05PM 41.9831 -73.6772 164° South 112 129 10,700 -600 Descending Boston Center
05:06PM 41.9456 -73.6656 167° South 127 146 9,800 -840 Descending Boston Center
05:07PM 41.9125 -73.6536 165° South 132 152 9,100 -660 Descending Boston Center
05:08PM 41.8792 -73.6419 165° South 132 152 8,500 -660 Descending Boston Center
05:09PM 41.8419 -73.6300 167° South 132 152 7,800 -600 Descending Boston Center
05:10PM 41.8128 -73.6183 163° South 127 146 7,300 -600 Descending Boston Center
05:11PM 41.7756 -73.6036 164° South 127 146 6,600 -600 Descending Boston Center
05:12PM 41.7483 -73.5919 162° South 127 146 6,100 -300 Descending Boston Center
05:13PM 41.7153 -73.5747 159° South 122 140 6,100  Level Boston Center
05:14PM 41.6903 -73.5633 161° South 116 133 6,100 -60 Level Boston Center
05:15PM 41.6614 -73.5489 160° South 116 133 6,000 -60 Descending Boston Center
05:16PM 41.6303 -73.5344 161° South 111 128 6,000  Level Boston Center
05:17PM 41.5992 -73.5200 161° South 106 122 6,000  Level Boston Center
05:18PM 41.5742 -73.5083 161° South 106 122 6,000 -420 Level Boston Center
05:19PM 41.5411 -73.4911 159° South 106 122 5,200 -600 Descending Boston Center
05:22PM 41.4833 -73.4333 143° Southeast 113 130 4,100 -360 Descending New York TRACON
05:23PM 41.4500 -73.4000 143° Southeast 109 125 4,100  Level New York TRACON
05:24PM 41.4333 -73.3833 143° Southeast 110 127 4,100  Level New York TRACON
05:25PM 41.4000 -73.3500 143° Southeast 114 131 4,100  Level New York TRACON
05:26PM 41.3833 -73.3333 143° Southeast 116 133 4,100  Level New York TRACON
05:27PM 41.3500 -73.3000 143° Southeast 117 135 4,100  Level New York TRACON
05:28PM 41.3167 -73.2833 159° South 117 135 4,100  Level New York TRACON
05:29PM 41.3000 -73.2500 124° Southeast 119 137 4,100  Level New York TRACON
05:30PM 41.2667 -73.2333 159° South 115 132 4,100  Level New York TRACON
05:31PM 41.2500 -73.2000 124° Southeast 116 133 4,100  Level New York TRACON
05:32PM 41.2167 -73.1833 159° South 117 135 4,100  Level New York TRACON
05:33PM 41.2000 -73.1500 124° Southeast 118 136 4,100  Level New York TRACON
05:34PM 41.1667 -73.1333 159° South 116 133 4,100  Level New York TRACON
05:35PM 41.1500 -73.1000 124° Southeast 121 139 4,100  Level New York TRACON
05:36PM 41.1167 -73.0667 143° Southeast 123 142 4,100  Level New York TRACON
05:37PM 41.1000 -73.0333 124° Southeast 123 142 4,100  Level New York TRACON
05:38PM 41.0667 -73.0000 143° Southeast 123 142 4,100  Level New York TRACON
05:39PM 41.0500 -73.0000 180° South 104 120 4,100  Level New York TRACON
05:40PM 41.0333 -73.0333 236° Southwest 96 110 4,100  Level New York TRACON
05:41PM 41.0167 -73.0500 217° Southwest 94 108 4,100  Level New York TRACON
05:42PM 40.9833 -73.0667 201° Southwest 95 109 4,100 -240 Level New York TRACON
05:43PM 40.9667 -73.1000 236° Southwest 102 117 3,700 -600 Descending New York TRACON
05:44PM 40.9500 -73.1167 217° Southwest 103 119 3,000 -300 Descending New York TRACON
05:45PM 40.9333 -73.1500 237° Southwest 89 102 3,100  Climbing New York TRACON
05:46PM 40.9167 -73.1667 217° Southwest 95 109 3,100  Level New York TRACON
05:47PM 40.8833 -73.1833 201° Southwest 92 106 3,100 -60 Level New York TRACON
05:48PM 40.8833 -73.2167 270° West 105 121 3,000  Descending New York TRACON
05:49PM 40.9167 -73.2500 323° Northwest 115 132 3,100  Climbing New York TRACON
05:50PM 40.9333 -73.2667 323° Northwest 113 130 3,000 -420 Descending New York TRACON
05:51PM 40.9333 -73.3000 270° West 86 99 2,300 -480 Descending New York TRACON
05:52PM 40.9167 -73.3333 237° Southwest 82 94 2,100 -120 Descending New York TRACON
05:53PM 40.9167 -73.3667 270° West 93 107 2,100  Level New York TRACON
05:54PM 40.9167 -73.4000 270° West 92 106 2,100 -60 Level New York TRACON
05:55PM 40.9000 -73.4167 217° Southwest 104 120 2,000 -300 Descending New York TRACON
05:56PM 40.8833 -73.4167 180° South 83 96 1,600 -180 Descending New York TRACON
05:57PM 40.8500 -73.4167 180° South 62 71 1,700 120 Climbing New York TRACON
05:58PM 40.8333 -73.4167 180° South 62 71 1,900 120 Climbing New York TRACON
05:59PM 40.8167 -73.4167 180° South 75 86 2,000 -180 Climbing New York TRACON
06:00PM 40.8000 -73.4167 180° South 74 85 1,600 -480 Descending New York TRACON
06:01PM 40.7833 -73.4167 180° South 74 85 1,100 -480 Descending New York TRACON
06:02PM 40.7667 -73.4167 180° South 80 92 700 -420 Descending New York TRACON
06:04PM 40.7288 -73.4134 180° South  Level Estimated
06:11PM 40.7288 -73.4134 180° South  Level Estimated
06:12PM 40.7288 -73.4134 180° South  Level Estimated